Wednesday, June 20, 2018, 3:37 AM EDT
Back to Local

KIAG, Niagara Falls International Airport

Location: Niagara Falls, NY, United States Lat: 43.117
Local Time: 3:37 AM EDT ( 7:37 GMT) Lon: -78.933
Time Zone: US/Eastern Elev: 583 ft

Show me the last for .
Show Decoded

2018-06-20 02:53 METAR KIAG 200653Z AUTO 00000KT 10SM CLR 17/09 A2992 RMK AO2 SLP131 T01670094 =
2018-06-20 01:53 METAR KIAG 200553Z AUTO 06003KT 10SM CLR 17/11 A2992 RMK AO2 SLP131 T01670106
                 10228 20167 58009 =
2018-06-20 00:53 METAR KIAG 200453Z AUTO 05003KT 10SM CLR 18/11 A2994 RMK AO2 SLP137 T01780111
                 402500172 =
2018-06-19 23:53 METAR KIAG 200353Z AUTO 00000KT 10SM CLR 19/11 A2995 RMK AO2 SLP140 T01890111 =
2018-06-19 22:53 METAR KIAG 200253Z 08003KT 10SM CLR 21/10 A2995 RMK AO2 SLP139 T02060100 56002 =
2018-06-19 21:53 METAR KIAG 200153Z 05003KT 10SM CLR 21/10 A2996 RMK AO2 SLP142 T02060100 =
2018-06-19 20:53 METAR KIAG 200053Z 07004KT 10SM CLR 22/10 A2994 RMK AO2 SLP136 T02170100 =
2018-06-19 19:53 METAR KIAG 192353Z 09004KT 10SM CLR 23/08 A2996 RMK AO2 SLP141 T02280083 10250
                 20228 56003 =
2018-06-19 18:53 METAR KIAG 192253Z 09005KT 10SM CLR 23/08 A2996 RMK AO2 SLP141 T02330083 =
2018-06-19 17:53 METAR KIAG 192153Z 06006KT 10SM CLR 24/08 A2996 RMK AO2 SLP144 T02390083 =
2018-06-19 16:53 METAR KIAG 192053Z 02006KT 10SM CLR 24/08 A2997 RMK AO2 SLP144 T02440078 58014 =
2018-06-19 15:53 METAR KIAG 191953Z 01010KT 10SM CLR 24/08 A2999 RMK AO2 SLP151 T02390078 =
2018-06-19 14:53 METAR KIAG 191853Z 02009G14KT 10SM CLR 24/09 A3000 RMK AO2 SLP155 T02390094 =
2018-06-19 13:53 METAR KIAG 191753Z 03004KT 10SM CLR 24/09 A3001 RMK AO2 SLP158 T02390089 10239
                 20200 55002 =
2018-06-19 12:53 METAR KIAG 191653Z 02008G18KT 10SM CLR 22/13 A3001 RMK AO2 SLP157 T02220128 =
2018-06-19 11:53 METAR KIAG 191553Z 02010KT 10SM SCT022 22/12 A3001 RMK AO2 SLP158 T02220117 =
2018-06-19 11:00 METAR KIAG 191500Z 02011G18KT 10SM SCT022 22/13 A3002 RMK AO2 T02220128 =
2018-06-19 10:53 METAR KIAG 191453Z 04008KT 10SM BKN022 22/13 A3001 RMK AO2 SLP160 T02170128
                 50003 =
2018-06-19 09:53 METAR KIAG 191353Z 03010KT 10SM BKN022 22/14 A3002 RMK AO2 SLP162 T02170139 =
2018-06-19 08:53 METAR KIAG 191253Z 03010KT 10SM BKN021 22/14 A3002 RMK AO2 SLP162 T02170144 =
2018-06-19 07:53 METAR KIAG 191153Z 05009KT 10SM CLR 20/14 A3001 RMK AO2 SLP157 70010 T02000144
                 10217 20172 51024 =
2018-06-19 06:53 METAR KIAG 191053Z 03007KT 10SM CLR 19/14 A2999 RMK AO2 SLP153 T01890144 =
2018-06-19 05:53 METAR KIAG 190953Z AUTO 00000KT 10SM CLR 17/14 A2996 RMK AO2 SLP141 T01720144 =
2018-06-19 04:53 METAR KIAG 190853Z AUTO 01007KT 10SM CLR 18/15 A2993 RMK AO2 SLP132 T01830150
                 51016 =
2018-06-19 03:53 METAR KIAG 190753Z AUTO 36007KT 10SM BKN070 19/16 A2992 RMK AO2 SLP129 T01940156
                 =

Support USWX by starting your Amazon purchase here.